createdAt,value
2023-04-23T00:02:21.071Z,21.37
2023-04-23T00:04:52.764Z,20.27
2023-04-23T00:07:21.128Z,19.67
2023-04-23T00:09:50.573Z,20.33
2023-04-23T00:12:18.174Z,20.80
2023-04-23T00:14:45.708Z,20.73
2023-04-23T00:17:13.246Z,19.90
2023-04-23T00:19:40.763Z,20.57
2023-04-23T00:22:08.433Z,20.50
2023-04-23T00:24:35.968Z,19.73
2023-04-23T00:27:04.373Z,20.27
2023-04-23T00:29:32.194Z,21.30
2023-04-23T00:31:59.821Z,19.77
2023-04-23T00:34:27.441Z,20.23
2023-04-23T00:36:55.042Z,19.80
2023-04-23T00:39:22.571Z,20.23
2023-04-23T00:41:50.159Z,20.03
2023-04-23T00:44:17.685Z,20.53
2023-04-23T00:46:45.741Z,20.70
2023-04-23T00:49:14.548Z,20.40
2023-04-23T00:51:42.101Z,19.97
2023-04-23T00:54:09.628Z,20.70
2023-04-23T00:56:37.505Z,21.00
2023-04-23T00:59:05.069Z,20.83
2023-04-23T01:01:32.980Z,20.80
2023-04-23T01:04:00.848Z,21.00
2023-04-23T01:06:28.588Z,20.33
2023-04-23T01:08:56.435Z,20.20
2023-04-23T01:11:24.303Z,21.73
2023-04-23T01:13:51.830Z,19.90
2023-04-23T01:16:19.509Z,20.77
2023-04-23T01:18:47.008Z,20.10
2023-04-23T01:21:15.458Z,20.50
2023-04-23T01:23:42.974Z,19.80
2023-04-23T01:26:10.596Z,21.73
2023-04-23T01:28:38.196Z,20.63
2023-04-23T01:31:05.946Z,21.90
2023-04-23T01:33:34.016Z,22.20
2023-04-23T01:36:02.877Z,21.83
2023-04-23T01:38:31.743Z,23.80
2023-04-23T01:40:59.298Z,22.47
2023-04-23T01:43:27.359Z,22.00
2023-04-23T01:45:54.956Z,21.63
2023-04-23T01:48:22.553Z,22.93
2023-04-23T01:50:51.356Z,23.67
2023-04-23T01:53:19.176Z,22.27
2023-04-23T01:55:47.660Z,24.67
2023-04-23T01:58:15.348Z,22.63
2023-04-23T02:00:42.916Z,22.20
2023-04-23T02:03:10.523Z,22.07
2023-04-23T02:05:39.562Z,23.27
2023-04-23T02:08:07.146Z,23.60
2023-04-23T02:10:34.673Z,23.80
2023-04-23T02:13:02.610Z,22.77
2023-04-23T02:15:30.419Z,23.23
2023-04-23T02:17:57.935Z,22.67
2023-04-23T02:20:25.532Z,23.67
2023-04-23T02:22:53.076Z,23.27
2023-04-23T02:25:20.763Z,24.07
2023-04-23T02:27:48.661Z,22.20
2023-04-23T02:30:16.239Z,21.33
2023-04-23T02:32:43.844Z,22.43
2023-04-23T02:35:11.510Z,22.53
2023-04-23T02:37:38.993Z,21.37
2023-04-23T02:40:06.963Z,22.23
2023-04-23T02:42:34.816Z,20.10
2023-04-23T02:45:02.434Z,21.40
2023-04-23T02:47:29.987Z,21.33
2023-04-23T02:49:57.523Z,20.80
2023-04-23T02:52:25.042Z,21.27
2023-04-23T02:54:52.621Z,19.93
2023-04-23T02:57:20.256Z,22.70
2023-04-23T02:59:47.872Z,20.87
2023-04-23T03:02:15.482Z,21.80
2023-04-23T03:04:43.360Z,20.57
2023-04-23T03:07:11.102Z,21.90
2023-04-23T03:09:38.642Z,20.83
2023-04-23T03:12:06.174Z,22.50
2023-04-23T03:14:33.719Z,21.37
2023-04-23T03:17:01.342Z,23.13
2023-04-23T03:19:29.017Z,23.07
2023-04-23T03:21:56.511Z,22.47
2023-04-23T03:24:24.066Z,21.23
2023-04-23T03:26:51.560Z,22.50
2023-04-23T03:29:21.792Z,22.07
2023-04-23T03:31:49.403Z,23.23
2023-04-23T03:34:16.878Z,22.47
2023-04-23T03:36:44.851Z,21.97
2023-04-23T03:39:12.436Z,23.50
2023-04-23T03:41:39.989Z,23.07
2023-04-23T03:44:07.493Z,24.53
2023-04-23T03:46:35.052Z,25.17
2023-04-23T03:49:02.599Z,24.00
2023-04-23T03:51:30.203Z,24.60
2023-04-23T03:53:57.680Z,22.83
2023-04-23T03:56:27.060Z,25.47
2023-04-23T03:58:54.813Z,23.87
2023-04-23T04:01:22.463Z,24.00
2023-04-23T04:03:50.189Z,24.87
2023-04-23T04:06:18.064Z,26.20
2023-04-23T04:08:45.573Z,25.73
2023-04-23T04:11:13.172Z,24.90
2023-04-23T04:13:40.684Z,25.93
2023-04-23T04:16:08.407Z,25.90
2023-04-23T04:18:35.962Z,25.93
2023-04-23T04:21:03.527Z,25.73
2023-04-23T04:23:31.128Z,26.73
2023-04-23T04:25:58.717Z,24.40
2023-04-23T04:28:26.254Z,24.53
2023-04-23T04:30:54.033Z,25.73
2023-04-23T04:33:21.548Z,25.53
2023-04-23T04:35:49.174Z,25.20
2023-04-23T04:38:16.651Z,23.77
2023-04-23T04:40:44.226Z,24.57
2023-04-23T04:43:11.709Z,25.53
2023-04-23T04:45:39.247Z,26.97
2023-04-23T04:48:06.785Z,25.70
2023-04-23T04:50:34.469Z,23.40
2023-04-23T04:53:01.975Z,23.63
2023-04-23T04:55:29.598Z,25.93
2023-04-23T04:57:57.119Z,24.07
2023-04-23T05:00:28.499Z,24.37
2023-04-23T05:02:59.500Z,23.43
2023-04-23T05:05:27.621Z,24.53
2023-04-23T05:07:55.461Z,23.23
2023-04-23T05:10:23.064Z,23.50
2023-04-23T05:12:50.600Z,22.93
2023-04-23T05:15:18.632Z,24.40
2023-04-23T05:17:46.164Z,24.57
2023-04-23T05:20:13.724Z,23.30
2023-04-23T05:22:41.925Z,24.50
2023-04-23T05:25:10.031Z,24.50
2023-04-23T05:27:37.684Z,22.73
2023-04-23T05:30:07.151Z,23.37
2023-04-23T05:32:35.062Z,22.37
2023-04-23T05:35:03.381Z,22.93
2023-04-23T05:37:30.996Z,23.27
2023-04-23T05:39:58.697Z,22.47
2023-04-23T05:42:26.235Z,23.73
2023-04-23T05:44:53.828Z,22.73
2023-04-23T05:47:21.394Z,21.67
2023-04-23T05:49:49.012Z,22.27
2023-04-23T05:52:16.716Z,21.27
2023-04-23T05:54:44.456Z,21.27
2023-04-23T05:57:12.246Z,21.53
2023-04-23T05:59:39.849Z,20.23
2023-04-23T06:02:08.100Z,20.03
2023-04-23T06:04:36.100Z,20.57
2023-04-23T06:07:04.449Z,19.67
2023-04-23T06:09:32.006Z,19.77
2023-04-23T06:11:59.626Z,18.33
2023-04-23T06:14:27.306Z,19.50
2023-04-23T06:16:54.823Z,19.00
2023-04-23T06:19:22.372Z,18.90
2023-04-23T06:21:51.538Z,19.13
2023-04-23T06:24:19.047Z,18.47
2023-04-23T06:26:46.530Z,19.30
2023-04-23T06:29:14.129Z,17.43
2023-04-23T06:31:41.796Z,17.20
2023-04-23T06:34:09.513Z,18.47
2023-04-23T06:36:37.040Z,17.03
2023-04-23T06:39:04.568Z,18.40
2023-04-23T06:41:32.072Z,16.27
2023-04-23T06:43:59.583Z,16.73
2023-04-23T06:46:27.060Z,15.80
2023-04-23T06:48:54.673Z,16.90
2023-04-23T06:51:22.204Z,15.77
2023-04-23T06:53:49.775Z,16.00
2023-04-23T06:56:17.298Z,14.67
2023-04-23T06:58:44.869Z,13.87
2023-04-23T07:01:12.469Z,13.70
2023-04-23T07:03:40.136Z,14.27
2023-04-23T07:06:07.949Z,13.87
2023-04-23T07:08:35.540Z,13.27
2023-04-23T07:11:03.063Z,14.27
2023-04-23T07:13:30.685Z,13.70
2023-04-23T07:15:58.224Z,12.27
2023-04-23T07:18:25.780Z,12.70
2023-04-23T07:20:53.269Z,12.60
2023-04-23T07:23:20.848Z,11.43
2023-04-23T07:25:48.345Z,11.67
2023-04-23T07:28:15.942Z,12.33
2023-04-23T07:30:43.521Z,11.17
2023-04-23T07:33:11.057Z,11.93
2023-04-23T07:35:38.572Z,10.07
2023-04-23T07:38:06.144Z,10.00
2023-04-23T07:40:33.722Z,10.00
2023-04-23T07:43:01.399Z,9.17
2023-04-23T07:45:28.912Z,9.03
2023-04-23T07:47:56.549Z,7.90
2023-04-23T07:50:24.108Z,6.37
2023-04-23T07:52:51.702Z,6.50
2023-04-23T07:55:19.360Z,7.07
2023-04-23T07:57:46.897Z,6.67
2023-04-23T08:00:14.728Z,6.37
2023-04-23T08:02:42.521Z,6.90
2023-04-23T08:05:10.328Z,6.63
2023-04-23T08:07:38.178Z,6.23
2023-04-23T08:10:06.015Z,5.40
2023-04-23T08:12:33.829Z,5.60
2023-04-23T08:15:01.389Z,4.90
2023-04-23T08:17:29.020Z,4.60
2023-04-23T08:19:56.538Z,4.60
2023-04-23T08:22:24.163Z,4.20
2023-04-23T08:24:51.648Z,4.60
2023-04-23T08:27:19.367Z,4.07
2023-04-23T08:29:46.872Z,3.70
2023-04-23T08:32:14.509Z,3.73
2023-04-23T08:34:42.107Z,2.97
2023-04-23T08:37:16.503Z,3.20
2023-04-23T08:39:51.039Z,3.30
2023-04-23T08:42:38.787Z,2.90
2023-04-23T08:45:06.641Z,2.97
2023-04-23T08:47:34.190Z,3.07
2023-04-23T08:50:02.099Z,2.70
2023-04-23T08:52:32.125Z,2.43
2023-04-23T08:55:00.917Z,3.13
2023-04-23T08:57:28.441Z,3.50
2023-04-23T08:59:56.493Z,3.97
2023-04-23T09:02:24.596Z,3.60
2023-04-23T09:04:54.088Z,3.97
2023-04-23T09:07:23.768Z,3.60
2023-04-23T09:09:51.281Z,4.07
2023-04-23T09:12:18.900Z,3.73
2023-04-23T09:14:46.418Z,3.80
2023-04-23T09:17:14.022Z,3.63
2023-04-23T09:19:42.605Z,3.30
2023-04-23T09:22:10.396Z,3.33
2023-04-23T09:24:37.909Z,3.40
2023-04-23T09:27:05.556Z,3.53
2023-04-23T09:29:33.045Z,2.73
2023-04-23T09:32:08.033Z,3.20
2023-04-23T09:34:36.366Z,2.97
2023-04-23T09:37:03.841Z,2.40
2023-04-23T09:39:31.441Z,2.87
2023-04-23T09:42:03.639Z,2.73
2023-04-23T09:44:32.961Z,2.80
2023-04-23T09:47:07.390Z,2.30
2023-04-23T09:49:45.271Z,2.70
2023-04-23T09:52:12.851Z,3.27
2023-04-23T09:54:40.514Z,2.60
2023-04-23T09:57:08.144Z,2.60
2023-04-23T09:59:46.658Z,2.27
2023-04-23T10:02:16.299Z,2.30
2023-04-23T10:04:44.180Z,2.03
2023-04-23T10:09:42.799Z,2.30
2023-04-23T10:12:27.825Z,1.73
2023-04-23T10:14:59.044Z,1.80
2023-04-23T10:17:26.736Z,1.80
2023-04-23T10:19:56.151Z,1.67
2023-04-23T10:22:23.840Z,1.60
2023-04-23T10:24:53.047Z,1.83
2023-04-23T10:27:33.358Z,2.00
2023-04-23T10:30:11.869Z,2.10
2023-04-23T10:32:39.632Z,1.90
2023-04-23T10:35:07.969Z,1.30
2023-04-23T10:37:36.496Z,1.50
2023-04-23T10:40:12.553Z,1.30
2023-04-23T10:42:43.975Z,1.53
2023-04-23T10:47:53.785Z,1.53
2023-04-23T10:50:23.006Z,1.30
2023-04-23T10:52:52.193Z,1.00
2023-04-23T10:55:23.631Z,1.23
2023-04-23T10:57:59.267Z,1.30
2023-04-23T11:00:29.224Z,1.10
2023-04-23T11:02:56.883Z,1.13
2023-04-23T11:05:24.541Z,1.50
2023-04-23T11:08:18.099Z,1.47
2023-04-23T11:10:57.536Z,1.37
2023-04-23T11:13:25.358Z,1.50
2023-04-23T11:16:19.487Z,1.00
2023-04-23T11:19:00.294Z,1.20
2023-04-23T11:21:46.600Z,1.40
2023-04-23T11:24:14.177Z,1.00
2023-04-23T11:26:43.500Z,1.10
2023-04-23T11:29:12.187Z,1.40
2023-04-23T11:31:50.568Z,1.13
2023-04-23T11:34:27.304Z,1.30
2023-04-23T11:36:54.986Z,1.30
2023-04-23T11:39:23.268Z,1.03
2023-04-23T11:41:50.787Z,1.13
2023-04-23T11:44:18.687Z,1.00
2023-04-23T11:46:47.129Z,1.07
2023-04-23T11:49:15.045Z,1.23
2023-04-23T11:51:43.426Z,1.20
2023-04-23T11:54:11.192Z,1.00
2023-04-23T11:56:38.781Z,1.17
2023-04-23T11:59:06.977Z,0.97
2023-04-23T12:01:44.315Z,1.30
2023-04-23T12:04:17.035Z,1.37
2023-04-23T12:06:45.729Z,1.10
2023-04-23T12:09:13.802Z,1.20
2023-04-23T12:11:42.016Z,1.27
2023-04-23T12:14:10.635Z,1.20
2023-04-23T12:16:38.240Z,1.37
2023-04-23T12:19:08.350Z,1.43
2023-04-23T12:21:36.032Z,0.97
2023-04-23T12:24:04.426Z,1.23
2023-04-23T12:26:32.093Z,1.43
2023-04-23T12:29:00.168Z,1.20
2023-04-23T12:31:28.480Z,1.30
2023-04-23T12:33:58.819Z,1.50
2023-04-23T12:36:27.675Z,1.20
2023-04-23T12:38:55.236Z,1.20
2023-04-23T12:41:22.920Z,1.13
2023-04-23T12:43:50.462Z,1.00
2023-04-23T12:46:18.070Z,1.20
2023-04-23T12:48:45.607Z,1.27
2023-04-23T12:51:13.234Z,1.50
2023-04-23T12:53:40.775Z,1.40
2023-04-23T12:56:08.349Z,1.80
2023-04-23T12:58:35.844Z,1.30
2023-04-23T13:01:03.494Z,1.20
2023-04-23T13:03:31.067Z,1.60
2023-04-23T13:05:58.708Z,1.30
2023-04-23T13:08:26.201Z,2.03
2023-04-23T13:10:53.895Z,1.30
2023-04-23T13:13:21.397Z,2.13
2023-04-23T13:15:48.988Z,1.07
2023-04-23T13:18:16.500Z,1.33
2023-04-23T13:20:44.092Z,1.70
2023-04-23T13:23:11.605Z,1.63
2023-04-23T13:25:39.201Z,1.40
2023-04-23T13:28:06.724Z,1.50
2023-04-23T13:30:34.283Z,1.77
2023-04-23T13:33:01.819Z,1.20
2023-04-23T13:35:29.501Z,1.17
2023-04-23T13:37:57.033Z,1.60
2023-04-23T13:40:24.601Z,1.23
2023-04-23T13:42:52.094Z,1.10
2023-04-23T13:45:19.744Z,1.37
2023-04-23T13:47:47.562Z,1.00
2023-04-23T13:50:15.142Z,1.23
2023-04-23T13:52:42.665Z,1.47
2023-04-23T13:55:10.323Z,1.10
2023-04-23T13:57:37.947Z,1.07
2023-04-23T14:00:05.887Z,1.50
2023-04-23T14:02:33.493Z,1.30
2023-04-23T14:05:01.179Z,1.17
2023-04-23T14:07:28.704Z,1.57
2023-04-23T14:09:56.880Z,1.13
2023-04-23T14:12:24.426Z,1.23
2023-04-23T14:14:51.993Z,1.20
2023-04-23T14:17:19.548Z,1.57
2023-04-23T14:19:47.439Z,1.40
2023-04-23T14:22:15.031Z,1.50
2023-04-23T14:24:51.079Z,1.40
2023-04-23T14:27:18.673Z,1.00
2023-04-23T14:29:47.542Z,1.10
2023-04-23T14:32:15.104Z,1.53
2023-04-23T14:34:42.653Z,1.50
2023-04-23T14:37:10.212Z,1.00
2023-04-23T14:39:37.715Z,1.00
2023-04-23T14:42:05.357Z,1.30
2023-04-23T14:44:32.869Z,1.20
2023-04-23T14:47:00.404Z,0.80
2023-04-23T14:49:27.915Z,1.07
2023-04-23T14:51:55.500Z,0.80
2023-04-23T14:54:23.010Z,1.20
2023-04-23T14:56:53.392Z,1.10
2023-04-23T14:59:21.542Z,1.00
2023-04-23T15:01:49.109Z,1.23
2023-04-23T15:04:17.093Z,1.10
2023-04-23T15:06:44.663Z,1.70
2023-04-23T15:09:12.427Z,1.30
2023-04-23T15:11:40.990Z,1.30
2023-04-23T15:14:09.550Z,1.83
2023-04-23T15:19:08.047Z,1.20
2023-04-23T15:21:35.519Z,1.20
2023-04-23T15:24:03.114Z,1.50
2023-04-23T15:26:31.650Z,1.40
2023-04-23T15:28:59.229Z,1.70
2023-04-23T15:31:26.789Z,1.63
2023-04-23T15:33:54.374Z,2.23
2023-04-23T15:36:21.918Z,2.30
2023-04-23T15:38:49.405Z,2.30
2023-04-23T15:41:16.979Z,1.90
2023-04-23T15:43:44.532Z,2.20
2023-04-23T15:46:12.190Z,1.73
2023-04-23T15:48:39.873Z,2.17
2023-04-23T15:51:08.024Z,1.70
2023-04-23T15:53:35.602Z,1.97
2023-04-23T15:56:03.106Z,1.70
2023-04-23T15:58:33.769Z,1.80
2023-04-23T16:01:01.395Z,2.10
2023-04-23T16:03:29.108Z,2.00
2023-04-23T16:05:56.887Z,2.30
2023-04-23T16:08:24.525Z,2.10
2023-04-23T16:10:52.034Z,2.10
2023-04-23T16:13:19.545Z,1.60
2023-04-23T16:15:47.108Z,1.97
2023-04-23T16:18:14.602Z,1.97
2023-04-23T16:20:42.134Z,2.10
2023-04-23T16:23:09.633Z,2.10
2023-04-23T16:25:37.582Z,2.17
2023-04-23T16:28:05.078Z,1.90
2023-04-23T16:30:32.665Z,2.00
2023-04-23T16:33:00.170Z,1.90
2023-04-23T16:35:27.814Z,2.23
2023-04-23T16:37:55.399Z,2.80
2023-04-23T16:40:23.075Z,3.00
2023-04-23T16:42:50.574Z,3.33
2023-04-23T16:45:18.402Z,2.63
2023-04-23T16:47:45.948Z,2.77
2023-04-23T16:50:13.699Z,2.33
2023-04-23T16:52:41.236Z,2.80
2023-04-23T16:55:09.145Z,2.90
2023-04-23T16:57:37.019Z,2.13
2023-04-23T17:00:04.771Z,2.50
2023-04-23T17:02:32.336Z,2.63
2023-04-23T17:04:59.896Z,2.80
2023-04-23T17:07:27.399Z,2.60
2023-04-23T17:09:54.905Z,2.00
2023-04-23T17:12:22.421Z,2.50
2023-04-23T17:14:49.979Z,2.73
2023-04-23T17:17:17.476Z,3.10
2023-04-23T17:19:45.015Z,3.03
2023-04-23T17:22:12.773Z,3.03
2023-04-23T17:24:40.707Z,3.53
2023-04-23T17:27:08.459Z,3.10
2023-04-23T17:29:36.026Z,2.97
2023-04-23T17:32:03.612Z,3.50
2023-04-23T17:34:31.202Z,3.60
2023-04-23T17:36:58.737Z,5.33
2023-04-23T17:39:26.325Z,3.30
2023-04-23T17:41:53.831Z,2.60
2023-04-23T17:44:21.375Z,2.53
2023-04-23T17:46:48.876Z,2.30
2023-04-23T17:49:16.490Z,2.73
2023-04-23T17:51:44.001Z,2.37
2023-04-23T17:54:11.549Z,2.60
2023-04-23T17:56:39.052Z,2.47
2023-04-23T17:59:06.718Z,2.10
2023-04-23T18:01:34.314Z,2.50
2023-04-23T18:04:02.120Z,2.60
2023-04-23T18:06:29.847Z,2.33
2023-04-23T18:08:57.404Z,2.20
2023-04-23T18:11:25.228Z,2.00
2023-04-23T18:13:53.018Z,2.77
2023-04-23T18:16:20.585Z,2.07
2023-04-23T18:18:48.226Z,2.13
2023-04-23T18:21:15.989Z,2.20
2023-04-23T18:23:43.623Z,1.90
2023-04-23T18:26:11.235Z,2.20
2023-04-23T18:28:38.909Z,2.10
2023-04-23T18:31:06.512Z,1.93
2023-04-23T18:33:37.013Z,2.20
2023-04-23T18:36:24.866Z,2.30
2023-04-23T18:38:52.450Z,2.30
2023-04-23T18:41:19.974Z,1.93
2023-04-23T18:43:47.671Z,2.20
2023-04-23T18:46:15.479Z,2.30
2023-04-23T18:48:53.255Z,2.40
2023-04-23T18:51:41.055Z,2.50
2023-04-23T18:54:08.652Z,2.37
2023-04-23T18:56:36.156Z,2.13
2023-04-23T18:59:07.219Z,1.90
2023-04-23T19:01:35.275Z,2.23
2023-04-23T19:04:03.198Z,2.50
2023-04-23T19:06:30.796Z,2.23
2023-04-23T19:08:58.618Z,2.10
2023-04-23T19:11:26.219Z,1.83
2023-04-23T19:13:53.798Z,2.20
2023-04-23T19:16:21.311Z,2.30
2023-04-23T19:18:48.934Z,2.37
2023-04-23T19:21:16.577Z,2.20
2023-04-23T19:23:44.158Z,2.00
2023-04-23T19:26:11.918Z,2.03
2023-04-23T19:28:39.821Z,1.97
2023-04-23T19:31:07.509Z,2.20
2023-04-23T19:33:35.324Z,1.87
2023-04-23T19:36:03.020Z,1.50
2023-04-23T19:38:30.613Z,1.10
2023-04-23T19:40:58.139Z,0.83
2023-04-23T19:43:25.693Z,0.80
2023-04-23T19:45:53.225Z,1.00
2023-04-23T19:48:20.946Z,0.80
2023-04-23T19:50:48.490Z,0.60
2023-04-23T19:53:16.066Z,0.60
2023-04-23T19:55:43.604Z,0.60
2023-04-23T19:58:11.129Z,0.60
2023-04-23T20:00:38.640Z,0.60
2023-04-23T20:03:06.904Z,0.60
2023-04-23T20:05:34.537Z,0.70
2023-04-23T20:08:02.163Z,0.70
2023-04-23T20:10:29.697Z,0.40
2023-04-23T20:12:57.669Z,0.47
2023-04-23T20:15:25.191Z,0.40
2023-04-23T20:17:53.389Z,0.53
2023-04-23T20:20:21.024Z,0.50
2023-04-23T20:22:49.183Z,0.73
2023-04-23T20:25:16.797Z,0.80
2023-04-23T20:27:44.362Z,0.83
2023-04-23T20:30:12.707Z,0.70
2023-04-23T20:32:40.316Z,0.80
2023-04-23T20:35:08.061Z,0.60
2023-04-23T20:37:35.678Z,0.70
2023-04-23T20:40:03.216Z,0.73
2023-04-23T20:42:30.755Z,0.80
2023-04-23T20:44:58.273Z,0.70
2023-04-23T20:47:25.916Z,0.70
2023-04-23T20:49:53.422Z,0.63
2023-04-23T20:52:21.007Z,0.80
2023-04-23T20:54:48.526Z,0.70
2023-04-23T20:57:16.105Z,0.70
2023-04-23T20:59:43.790Z,0.60
2023-04-23T21:02:11.762Z,0.80
2023-04-23T21:04:39.347Z,0.90
2023-04-23T21:07:07.053Z,0.90
2023-04-23T21:09:34.574Z,0.63
2023-04-23T21:12:02.182Z,0.63
2023-04-23T21:14:29.908Z,1.00
2023-04-23T21:16:57.419Z,1.00
2023-04-23T21:19:24.946Z,0.87
2023-04-23T21:21:52.539Z,0.80
2023-04-23T21:24:20.026Z,1.00
2023-04-23T21:26:48.803Z,0.90
2023-04-23T21:29:16.289Z,0.80
2023-04-23T21:31:45.823Z,1.13
2023-04-23T21:34:14.813Z,0.73
2023-04-23T21:36:42.346Z,0.83
2023-04-23T21:39:12.305Z,0.90
2023-04-23T21:41:40.621Z,0.80
2023-04-23T21:44:08.983Z,0.80
2023-04-23T21:46:36.573Z,0.80
2023-04-23T21:49:04.123Z,0.83
2023-04-23T21:51:31.729Z,0.80
2023-04-23T21:53:59.258Z,0.73
2023-04-23T21:56:27.078Z,1.00
2023-04-23T21:58:54.703Z,0.90
2023-04-23T22:01:22.340Z,0.80
2023-04-23T22:03:50.025Z,1.00
2023-04-23T22:06:17.718Z,0.90
2023-04-23T22:08:46.232Z,0.97
2023-04-23T22:11:14.193Z,1.20
2023-04-23T22:13:41.668Z,1.27
2023-04-23T22:16:24.358Z,1.20
2023-04-23T22:18:54.932Z,1.17
2023-04-23T22:21:22.469Z,0.93
2023-04-23T22:23:50.180Z,1.20
2023-04-23T22:26:17.792Z,1.03
2023-04-23T22:28:45.463Z,0.90
2023-04-23T22:31:16.082Z,1.20
2023-04-23T22:33:43.815Z,1.10
2023-04-23T22:36:11.377Z,1.10
2023-04-23T22:38:39.033Z,1.40
2023-04-23T22:41:06.513Z,1.13
2023-04-23T22:43:34.034Z,1.00
2023-04-23T22:46:01.663Z,0.87
2023-04-23T22:48:29.388Z,1.07
2023-04-23T22:50:57.044Z,0.83
2023-04-23T22:53:24.597Z,1.67
2023-04-23T22:55:52.084Z,0.83
2023-04-23T22:58:19.671Z,0.90
2023-04-23T23:00:47.161Z,1.10
2023-04-23T23:03:14.878Z,0.90
2023-04-23T23:05:42.488Z,0.97
2023-04-23T23:08:10.120Z,1.00
2023-04-23T23:10:37.617Z,1.40
2023-04-23T23:13:05.225Z,0.80
2023-04-23T23:15:32.682Z,1.10
2023-04-23T23:18:00.329Z,1.00
2023-04-23T23:20:27.973Z,0.90
2023-04-23T23:22:55.590Z,0.93
2023-04-23T23:25:23.092Z,1.37
2023-04-23T23:27:50.665Z,1.10
2023-04-23T23:30:18.212Z,1.20
2023-04-23T23:32:46.436Z,0.87
2023-04-23T23:35:14.015Z,1.07
2023-04-23T23:37:41.536Z,1.03
2023-04-23T23:40:09.363Z,1.00
2023-04-23T23:42:36.939Z,1.10
2023-04-23T23:45:04.597Z,1.37
2023-04-23T23:47:32.219Z,1.30
2023-04-23T23:49:59.812Z,1.23
2023-04-23T23:52:27.381Z,1.30
2023-04-23T23:54:54.883Z,1.23
2023-04-23T23:57:22.441Z,1.60
2023-04-23T23:59:49.908Z,1.30
